createdAt,value
2022-12-24T00:02:45.721Z,40.88
2022-12-24T00:05:52.832Z,47.17
2022-12-24T00:08:58.611Z,51.55
2022-12-24T00:12:04.826Z,48.52
2022-12-24T00:15:10.401Z,44.73
2022-12-24T00:18:15.575Z,42.67
2022-12-24T00:21:21.096Z,40.95
2022-12-24T00:24:26.666Z,47.65
2022-12-24T00:27:33.981Z,45.50
2022-12-24T00:30:40.394Z,46.40
2022-12-24T00:33:46.608Z,47.98
2022-12-24T00:36:53.079Z,47.75
2022-12-24T00:39:58.933Z,45.52
2022-12-24T00:43:04.342Z,46.80
2022-12-24T00:46:09.683Z,43.08
2022-12-24T00:49:15.589Z,51.40
2022-12-24T00:52:21.771Z,47.13
2022-12-24T00:55:27.102Z,52.65
2022-12-24T00:58:31.827Z,44.30
2022-12-24T01:01:38.098Z,48.20
2022-12-24T01:05:01.655Z,50.05
2022-12-24T01:08:08.907Z,50.78
2022-12-24T01:11:14.658Z,49.80
2022-12-24T01:14:20.964Z,51.92
2022-12-24T01:17:27.305Z,47.60
2022-12-24T01:20:34.547Z,53.87
2022-12-24T01:23:39.996Z,50.45
2022-12-24T01:26:45.766Z,47.93
2022-12-24T01:29:51.935Z,47.30
2022-12-24T01:32:58.396Z,50.23
2022-12-24T01:36:04.371Z,50.55
2022-12-24T01:39:09.370Z,52.62
2022-12-24T01:42:32.516Z,54.18
2022-12-24T01:46:00.651Z,47.53
2022-12-24T01:49:15.119Z,48.13
2022-12-24T01:52:26.440Z,51.18
2022-12-24T01:55:32.095Z,45.88
2022-12-24T01:58:37.956Z,48.60
2022-12-24T02:01:43.447Z,50.43
2022-12-24T02:04:53.637Z,50.35
2022-12-24T02:07:59.292Z,48.08
2022-12-24T02:11:06.141Z,45.05
2022-12-24T02:14:13.501Z,52.83
2022-12-24T02:17:59.185Z,47.40
2022-12-24T02:21:30.314Z,50.03
2022-12-24T02:25:06.686Z,46.30
2022-12-24T02:28:22.422Z,47.03
2022-12-24T02:31:40.679Z,54.38
2022-12-24T02:34:55.517Z,51.50
2022-12-24T02:38:05.888Z,47.53
2022-12-24T02:41:15.978Z,47.35
2022-12-24T02:44:22.784Z,44.00
2022-12-24T02:47:28.547Z,51.40
2022-12-24T02:50:34.359Z,46.63
2022-12-24T02:53:40.431Z,43.52
2022-12-24T02:57:30.183Z,49.45
2022-12-24T03:00:34.981Z,46.60
2022-12-24T03:04:13.960Z,46.60
2022-12-24T03:07:23.827Z,53.68
2022-12-24T03:10:46.365Z,54.15
2022-12-24T03:13:51.433Z,46.98
2022-12-24T03:16:56.421Z,51.40
2022-12-24T03:20:03.729Z,50.73
2022-12-24T03:23:09.164Z,55.28
2022-12-24T03:26:17.701Z,51.25
2022-12-24T03:29:23.239Z,52.65
2022-12-24T03:32:28.405Z,51.20
2022-12-24T03:35:33.380Z,49.80
2022-12-24T03:38:39.189Z,51.10
2022-12-24T03:41:44.960Z,47.17
2022-12-24T03:44:50.684Z,57.08
2022-12-24T03:47:56.310Z,53.17
2022-12-24T03:51:01.929Z,53.30
2022-12-24T03:54:08.830Z,51.95
2022-12-24T03:57:14.425Z,55.05
2022-12-24T04:00:21.250Z,56.25
2022-12-24T04:03:27.483Z,51.55
2022-12-24T04:06:32.834Z,57.38
2022-12-24T04:09:38.008Z,50.88
2022-12-24T04:12:43.522Z,55.78
2022-12-24T04:15:55.279Z,58.10
2022-12-24T04:19:00.800Z,60.78
2022-12-24T04:22:06.387Z,54.20
2022-12-24T04:25:13.290Z,59.25
2022-12-24T04:28:18.843Z,56.28
2022-12-24T04:31:27.116Z,54.20
2022-12-24T04:34:33.336Z,56.30
2022-12-24T04:37:39.139Z,54.58
2022-12-24T04:40:45.431Z,59.03
2022-12-24T04:43:50.911Z,56.42
2022-12-24T04:46:57.699Z,53.75
2022-12-24T04:50:03.192Z,53.15
2022-12-24T04:53:08.311Z,52.40
2022-12-24T04:56:13.947Z,49.38
2022-12-24T04:59:20.267Z,49.80
2022-12-24T05:02:26.125Z,54.08
2022-12-24T05:05:32.664Z,60.05
2022-12-24T05:08:38.218Z,55.98
2022-12-24T05:11:44.179Z,51.40
2022-12-24T05:14:48.702Z,51.50
2022-12-24T05:17:54.264Z,53.80
2022-12-24T05:20:59.763Z,54.67
2022-12-24T05:24:22.712Z,60.55
2022-12-24T05:27:28.574Z,56.18
2022-12-24T05:30:33.786Z,59.50
2022-12-24T05:33:40.150Z,53.28
2022-12-24T05:36:46.359Z,49.42
2022-12-24T05:39:51.316Z,50.90
2022-12-24T05:42:56.927Z,51.53
2022-12-24T05:46:04.151Z,47.10
2022-12-24T05:49:09.333Z,48.48
2022-12-24T05:52:14.335Z,48.17
2022-12-24T05:55:20.636Z,49.65
2022-12-24T05:58:26.182Z,52.55
2022-12-24T06:01:31.629Z,53.15
2022-12-24T06:04:36.677Z,47.78
2022-12-24T06:07:41.604Z,52.27
2022-12-24T06:10:47.339Z,53.13
2022-12-24T06:13:53.408Z,52.85
2022-12-24T06:17:00.643Z,51.33
2022-12-24T06:20:06.329Z,48.28
2022-12-24T06:23:11.482Z,44.08
2022-12-24T06:26:17.125Z,52.50
2022-12-24T06:29:22.783Z,49.18
2022-12-24T06:32:28.005Z,49.00
2022-12-24T06:35:35.011Z,50.98
2022-12-24T06:38:40.312Z,50.23
2022-12-24T06:41:46.701Z,46.60
2022-12-24T06:44:51.624Z,48.50
2022-12-24T06:47:57.003Z,49.60
2022-12-24T06:51:02.852Z,49.03
2022-12-24T06:54:08.257Z,46.40
2022-12-24T06:57:14.326Z,50.17
2022-12-24T07:00:23.498Z,51.80
2022-12-24T07:03:30.002Z,51.65
2022-12-24T07:06:41.034Z,48.60
2022-12-24T07:09:46.443Z,51.73
2022-12-24T07:12:52.892Z,56.13
2022-12-24T07:15:58.678Z,50.85
2022-12-24T07:19:05.418Z,46.30
2022-12-24T07:22:15.469Z,53.15
2022-12-24T07:25:18.737Z,52.30
2022-12-24T07:28:28.078Z,50.38
2022-12-24T07:31:32.593Z,49.77
2022-12-24T07:34:37.896Z,47.73
2022-12-24T07:37:43.072Z,48.80
2022-12-24T07:40:49.578Z,48.83
2022-12-24T07:43:56.380Z,53.87
2022-12-24T07:47:02.147Z,47.48
2022-12-24T07:50:07.476Z,51.30
2022-12-24T07:53:12.693Z,48.73
2022-12-24T07:56:18.278Z,51.00
2022-12-24T07:59:27.061Z,52.13
2022-12-24T08:02:32.042Z,41.23
2022-12-24T08:05:37.580Z,45.95
2022-12-24T08:08:51.427Z,42.03
2022-12-24T08:11:58.587Z,40.60
2022-12-24T08:15:04.824Z,45.58
2022-12-24T08:18:10.346Z,43.80
2022-12-24T08:21:15.603Z,47.75
2022-12-24T08:24:21.158Z,43.78
2022-12-24T08:27:25.749Z,44.53
2022-12-24T08:30:31.853Z,44.48
2022-12-24T08:33:36.897Z,42.05
2022-12-24T08:36:42.236Z,49.80
2022-12-24T08:39:49.419Z,44.27
2022-12-24T08:42:54.865Z,43.50
2022-12-24T08:46:05.732Z,36.58
2022-12-24T08:49:11.066Z,40.48
2022-12-24T08:52:16.621Z,42.13
2022-12-24T08:55:23.144Z,44.45
2022-12-24T08:58:28.579Z,41.28
2022-12-24T09:01:34.901Z,41.90
2022-12-24T09:04:41.327Z,40.10
2022-12-24T09:07:46.726Z,43.00
2022-12-24T09:10:53.270Z,37.20
2022-12-24T09:13:58.963Z,48.83
2022-12-24T09:17:04.901Z,36.73
2022-12-24T09:20:10.880Z,39.55
2022-12-24T09:23:16.685Z,38.63
2022-12-24T09:26:39.680Z,39.20
2022-12-24T09:29:47.339Z,34.05
2022-12-24T09:32:52.972Z,42.50
2022-12-24T09:35:58.510Z,39.18
2022-12-24T09:39:05.997Z,43.73
2022-12-24T09:42:40.697Z,34.53
2022-12-24T09:45:50.668Z,41.58
2022-12-24T09:48:59.898Z,41.28
2022-12-24T09:52:15.162Z,28.73
2022-12-24T09:55:36.225Z,41.48
2022-12-24T09:58:54.337Z,48.00
2022-12-24T10:01:59.891Z,38.48
2022-12-24T10:05:05.604Z,37.83
2022-12-24T10:08:36.570Z,37.55
2022-12-24T10:11:56.570Z,39.48
2022-12-24T10:15:29.286Z,34.18
2022-12-24T10:19:10.904Z,36.83
2022-12-24T10:22:39.952Z,36.08
2022-12-24T10:25:50.522Z,36.90
2022-12-24T10:29:08.700Z,34.35
2022-12-24T10:32:28.349Z,33.92
2022-12-24T10:35:54.341Z,34.30
2022-12-24T10:39:00.525Z,31.37
2022-12-24T10:42:09.127Z,36.63
2022-12-24T10:45:18.698Z,37.58
2022-12-24T10:48:26.176Z,31.97
2022-12-24T10:52:13.954Z,31.65
2022-12-24T10:55:36.096Z,35.70
2022-12-24T10:58:42.579Z,29.98
2022-12-24T11:02:02.126Z,32.60
2022-12-24T11:05:07.574Z,34.38
2022-12-24T11:08:18.203Z,29.27
2022-12-24T11:11:27.130Z,30.32
2022-12-24T11:14:35.272Z,32.65
2022-12-24T11:17:41.210Z,32.15
2022-12-24T11:20:48.227Z,30.65
2022-12-24T11:23:53.376Z,33.95
2022-12-24T11:26:59.456Z,34.92
2022-12-24T11:30:11.475Z,28.10
2022-12-24T11:33:25.391Z,26.33
2022-12-24T11:36:30.751Z,27.17
2022-12-24T11:39:38.664Z,34.50
2022-12-24T11:42:49.274Z,31.65
2022-12-24T11:45:55.287Z,28.12
2022-12-24T11:49:07.598Z,30.17
2022-12-24T11:52:29.072Z,28.98
2022-12-24T11:56:07.565Z,35.28
2022-12-24T11:59:44.965Z,31.00
2022-12-24T12:02:57.989Z,29.67
2022-12-24T12:06:03.259Z,29.77
2022-12-24T12:09:13.686Z,31.10
2022-12-24T12:12:35.485Z,32.00
2022-12-24T12:15:54.460Z,31.42
2022-12-24T12:19:10.018Z,32.00
2022-12-24T12:22:13.891Z,31.25
2022-12-24T12:25:19.696Z,35.10
2022-12-24T12:28:49.114Z,32.13
2022-12-24T12:32:02.786Z,31.50
2022-12-24T12:35:32.957Z,26.27
2022-12-24T12:38:42.711Z,27.32
2022-12-24T12:42:05.296Z,30.52
2022-12-24T12:45:27.906Z,30.45
2022-12-24T12:49:15.547Z,27.02
2022-12-24T12:52:45.819Z,30.23
2022-12-24T12:56:24.689Z,33.13
2022-12-24T12:59:52.187Z,34.13
2022-12-24T13:03:25.235Z,33.30
2022-12-24T13:07:00.917Z,33.15
2022-12-24T13:10:31.033Z,35.70
2022-12-24T13:13:51.816Z,35.48
2022-12-24T13:17:13.612Z,32.13
2022-12-24T13:20:44.131Z,33.18
2022-12-24T13:23:49.495Z,32.95
2022-12-24T13:26:55.556Z,32.58
2022-12-24T13:30:38.516Z,33.35
2022-12-24T13:33:55.957Z,29.35
2022-12-24T13:37:19.826Z,35.85
2022-12-24T13:40:32.674Z,30.43
2022-12-24T13:43:37.952Z,35.28
2022-12-24T13:47:12.829Z,36.58
2022-12-24T13:50:43.734Z,32.75
2022-12-24T13:54:00.514Z,33.55
2022-12-24T13:57:06.985Z,33.30
2022-12-24T14:00:28.316Z,33.00
2022-12-24T14:03:39.658Z,35.88
2022-12-24T14:06:50.389Z,36.17
2022-12-24T14:13:03.410Z,40.38
2022-12-24T14:16:16.751Z,36.35
2022-12-24T14:19:40.519Z,39.78
2022-12-24T14:22:58.474Z,38.95
2022-12-24T14:26:04.767Z,41.50
2022-12-24T14:29:15.235Z,35.98
2022-12-24T14:32:30.763Z,34.45
2022-12-24T14:35:53.316Z,46.33
2022-12-24T14:39:00.529Z,41.80
2022-12-24T14:42:43.946Z,36.17
2022-12-24T14:46:03.388Z,37.28
2022-12-24T14:49:23.369Z,41.10
2022-12-24T14:53:04.588Z,41.60
2022-12-24T14:55:59.895Z,48.42
2022-12-24T14:59:08.346Z,43.10
2022-12-24T15:02:15.639Z,40.38
2022-12-24T15:05:35.937Z,36.50
2022-12-24T15:08:58.012Z,40.23
2022-12-24T15:12:06.673Z,39.42
2022-12-24T15:15:12.460Z,38.78
2022-12-24T15:18:17.681Z,41.65
2022-12-24T15:21:25.191Z,40.60
2022-12-24T15:24:45.220Z,39.88
2022-12-24T15:27:52.689Z,43.60
2022-12-24T15:30:57.706Z,46.50
2022-12-24T15:34:03.886Z,37.83
2022-12-24T15:37:16.284Z,41.20
2022-12-24T15:40:26.096Z,44.95
2022-12-24T15:43:32.447Z,41.55
2022-12-24T15:46:38.265Z,39.95
2022-12-24T15:49:48.214Z,37.07
2022-12-24T15:53:19.416Z,38.67
2022-12-24T15:56:22.445Z,36.90
2022-12-24T15:59:44.221Z,35.95
2022-12-24T16:02:54.450Z,40.73
2022-12-24T16:06:01.198Z,37.33
2022-12-24T16:09:05.893Z,42.05
2022-12-24T16:12:10.960Z,38.08
2022-12-24T16:15:16.693Z,36.93
2022-12-24T16:18:22.811Z,34.92
2022-12-24T16:21:39.173Z,35.00
2022-12-24T16:24:44.590Z,41.83
2022-12-24T16:27:49.904Z,34.30
2022-12-24T16:30:54.838Z,34.38
2022-12-24T16:34:00.807Z,31.10
2022-12-24T16:37:05.245Z,31.48
2022-12-24T16:40:16.682Z,31.73
2022-12-24T16:43:35.250Z,37.63
2022-12-24T16:46:41.398Z,35.20
2022-12-24T16:49:47.407Z,40.90
2022-12-24T16:52:52.955Z,33.98
2022-12-24T16:55:58.186Z,40.83
2022-12-24T16:59:04.007Z,34.53
2022-12-24T17:02:14.583Z,38.25
2022-12-24T17:05:17.300Z,34.98
2022-12-24T17:08:23.574Z,32.78
2022-12-24T17:11:29.236Z,30.70
2022-12-24T17:14:34.254Z,33.88
2022-12-24T17:17:42.063Z,35.20
2022-12-24T17:20:47.842Z,28.87
2022-12-24T17:23:54.962Z,29.90
2022-12-24T17:26:54.398Z,31.45
2022-12-24T17:30:00.738Z,35.13
2022-12-24T17:33:10.963Z,30.10
2022-12-24T17:36:13.026Z,29.72
2022-12-24T17:39:22.339Z,27.10
2022-12-24T17:42:24.367Z,31.75
2022-12-24T17:45:29.066Z,27.13
2022-12-24T17:48:34.545Z,31.70
2022-12-24T17:51:46.024Z,31.07
2022-12-24T17:54:51.805Z,28.75
2022-12-24T17:57:57.509Z,31.40
2022-12-24T18:01:04.582Z,26.12
2022-12-24T18:04:09.442Z,25.23
2022-12-24T18:07:14.590Z,29.65
2022-12-24T18:10:21.107Z,26.70
2022-12-24T18:13:26.292Z,30.48
2022-12-24T18:16:44.316Z,33.28
2022-12-24T18:19:50.325Z,33.80
2022-12-24T18:22:55.665Z,24.72
2022-12-24T18:26:02.231Z,30.37
2022-12-24T18:29:12.320Z,30.00
2022-12-24T18:32:20.932Z,29.57
2022-12-24T18:35:27.830Z,26.62
2022-12-24T18:38:33.107Z,32.83
2022-12-24T18:41:40.096Z,33.40
2022-12-24T18:44:46.313Z,35.50
2022-12-24T18:47:53.140Z,30.65
2022-12-24T18:50:59.243Z,29.32
2022-12-24T18:54:05.379Z,28.05
2022-12-24T18:57:11.042Z,34.20
2022-12-24T19:00:17.782Z,31.62
2022-12-24T19:03:24.461Z,30.97
2022-12-24T19:06:30.983Z,30.12
2022-12-24T19:09:36.303Z,28.85
2022-12-24T19:12:41.665Z,28.80
2022-12-24T19:15:46.928Z,25.10
2022-12-24T19:18:53.614Z,35.73
2022-12-24T19:21:58.828Z,29.77
2022-12-24T19:25:05.435Z,28.40
2022-12-24T19:28:13.691Z,26.95
2022-12-24T19:31:26.059Z,30.57
2022-12-24T19:34:32.962Z,28.42
2022-12-24T19:37:39.696Z,28.87
2022-12-24T19:40:45.262Z,29.42
2022-12-24T19:43:59.422Z,31.75
2022-12-24T19:47:05.837Z,29.57
2022-12-24T19:50:10.868Z,30.92
2022-12-24T19:53:17.732Z,29.48
2022-12-24T19:56:23.544Z,30.70
2022-12-24T19:59:29.495Z,28.77
2022-12-24T20:02:35.358Z,30.10
2022-12-24T20:05:42.660Z,30.45
2022-12-24T20:08:50.064Z,28.40
2022-12-24T20:11:55.626Z,28.73
2022-12-24T20:15:01.074Z,34.13
2022-12-24T20:18:06.728Z,33.28
2022-12-24T20:21:16.378Z,32.20
2022-12-24T20:24:21.958Z,31.50
2022-12-24T20:27:20.033Z,36.70
2022-12-24T20:30:27.563Z,34.20
2022-12-24T20:33:34.272Z,30.88
2022-12-24T20:36:40.183Z,28.85
2022-12-24T20:39:46.366Z,30.62
2022-12-24T20:42:52.359Z,32.93
2022-12-24T20:46:04.305Z,33.20
2022-12-24T20:49:10.972Z,32.23
2022-12-24T20:52:16.200Z,38.08
2022-12-24T20:55:24.366Z,38.17
2022-12-24T20:58:31.248Z,33.42
2022-12-24T21:01:39.021Z,33.18
2022-12-24T21:04:44.902Z,37.25
2022-12-24T21:07:50.458Z,31.75
2022-12-24T21:10:57.675Z,38.13
2022-12-24T21:14:03.829Z,32.50
2022-12-24T21:17:15.417Z,39.83
2022-12-24T21:20:19.683Z,37.48
2022-12-24T21:23:24.887Z,36.88
2022-12-24T21:26:30.707Z,35.10
2022-12-24T21:29:35.896Z,30.35
2022-12-24T21:32:42.115Z,35.00
2022-12-24T21:35:47.712Z,33.95
2022-12-24T21:38:53.125Z,37.55
2022-12-24T21:41:58.894Z,38.92
2022-12-24T21:45:03.455Z,33.75
2022-12-24T21:48:11.077Z,31.57
2022-12-24T21:51:15.610Z,35.52
2022-12-24T21:54:30.933Z,31.55
2022-12-24T21:57:54.651Z,34.50
2022-12-24T22:01:00.504Z,32.25
2022-12-24T22:04:05.670Z,36.77
2022-12-24T22:07:28.705Z,30.45
2022-12-24T22:10:51.687Z,35.30
2022-12-24T22:13:58.672Z,38.73
2022-12-24T22:17:05.164Z,35.68
2022-12-24T22:20:10.523Z,29.23
2022-12-24T22:23:16.898Z,30.72
2022-12-24T22:26:32.255Z,31.23
2022-12-24T22:29:37.770Z,35.73
2022-12-24T22:32:43.247Z,34.60
2022-12-24T22:35:48.787Z,37.60
2022-12-24T22:38:53.324Z,34.35
2022-12-24T22:42:00.395Z,31.85
2022-12-24T22:45:05.356Z,31.60
2022-12-24T22:48:10.617Z,38.15
2022-12-24T22:51:18.245Z,32.45
2022-12-24T22:54:23.175Z,31.15
2022-12-24T22:57:28.697Z,35.35
2022-12-24T23:00:56.676Z,34.00
2022-12-24T23:03:55.887Z,32.38
2022-12-24T23:07:02.414Z,30.25
2022-12-24T23:10:08.281Z,34.18
2022-12-24T23:13:32.073Z,34.00
2022-12-24T23:16:37.077Z,33.75
2022-12-24T23:19:42.632Z,33.25
2022-12-24T23:22:48.345Z,33.38
2022-12-24T23:25:54.132Z,34.63
2022-12-24T23:29:00.741Z,32.17
2022-12-24T23:32:06.238Z,33.35
2022-12-24T23:35:11.941Z,35.43
2022-12-24T23:38:18.059Z,32.80
2022-12-24T23:41:24.223Z,31.23
2022-12-24T23:44:32.467Z,32.98
2022-12-24T23:47:37.260Z,31.73
2022-12-24T23:50:44.624Z,30.57
2022-12-24T23:53:49.338Z,30.65
2022-12-24T23:56:57.054Z,31.62
